sensor_id;sensor_type;location;lat;lon;timestamp;pressure;altitude;pressure_sealevel;temperature;humidity
14204;BME280;7185;51.854;6.622;2023-05-14T00:01:22;101614.69;;;19.22;56.92
14204;BME280;7185;51.854;6.622;2023-05-14T00:03:55;101612.81;;;19.24;57.16
14204;BME280;7185;51.854;6.622;2023-05-14T00:06:27;101607.72;;;19.18;57.45
14204;BME280;7185;51.854;6.622;2023-05-14T00:08:58;101609.78;;;19.11;58.01
14204;BME280;7185;51.854;6.622;2023-05-14T00:11:30;101609.03;;;19.08;57.71
14204;BME280;7185;51.854;6.622;2023-05-14T00:14:02;101599.63;;;18.99;57.92
14204;BME280;7185;51.854;6.622;2023-05-14T00:16:33;101608.75;;;18.92;57.74
14204;BME280;7185;51.854;6.622;2023-05-14T00:19:06;101607.78;;;18.93;58.25
14204;BME280;7185;51.854;6.622;2023-05-14T00:21:38;101600.63;;;18.95;57.33
14204;BME280;7185;51.854;6.622;2023-05-14T00:24:09;101601.00;;;18.84;57.67
14204;BME280;7185;51.854;6.622;2023-05-14T00:26:41;101603.81;;;18.79;57.62
14204;BME280;7185;51.854;6.622;2023-05-14T00:29:12;101600.81;;;18.65;57.25
14204;BME280;7185;51.854;6.622;2023-05-14T00:31:44;101595.72;;;18.59;57.70
14204;BME280;7185;51.854;6.622;2023-05-14T00:34:17;101593.66;;;18.67;57.88
14204;BME280;7185;51.854;6.622;2023-05-14T00:36:49;101593.88;;;18.61;57.78
14204;BME280;7185;51.854;6.622;2023-05-14T00:39:21;101590.53;;;18.56;57.78
14204;BME280;7185;51.854;6.622;2023-05-14T00:41:52;101594.56;;;18.42;58.00
14204;BME280;7185;51.854;6.622;2023-05-14T00:44:24;101583.19;;;18.39;57.92
14204;BME280;7185;51.854;6.622;2023-05-14T00:46:56;101582.41;;;18.35;57.99
14204;BME280;7185;51.854;6.622;2023-05-14T00:49:29;101579.97;;;18.29;58.74
14204;BME280;7185;51.854;6.622;2023-05-14T00:52:01;101583.03;;;18.16;59.07
14204;BME280;7185;51.854;6.622;2023-05-14T00:54:33;101586.31;;;18.25;59.32
14204;BME280;7185;51.854;6.622;2023-05-14T00:57:05;101582.41;;;18.10;59.34
14204;BME280;7185;51.854;6.622;2023-05-14T00:59:37;101581.03;;;17.98;59.44
14204;BME280;7185;51.854;6.622;2023-05-14T01:02:10;101583.16;;;17.87;59.27
14204;BME280;7185;51.854;6.622;2023-05-14T01:04:43;101588.47;;;17.85;60.08
14204;BME280;7185;51.854;6.622;2023-05-14T01:07:20;101584.59;;;17.97;60.15
14204;BME280;7185;51.854;6.622;2023-05-14T01:09:58;101589.25;;;17.89;60.27
14204;BME280;7185;51.854;6.622;2023-05-14T01:12:34;101587.31;;;17.94;59.57
14204;BME280;7185;51.854;6.622;2023-05-14T01:15:10;101580.72;;;17.79;59.88
14204;BME280;7185;51.854;6.622;2023-05-14T01:17:45;101583.53;;;17.74;60.07
14204;BME280;7185;51.854;6.622;2023-05-14T01:20:20;101583.66;;;17.69;60.37
14204;BME280;7185;51.854;6.622;2023-05-14T01:23:02;101579.69;;;17.56;61.08
14204;BME280;7185;51.854;6.622;2023-05-14T01:25:33;101576.19;;;17.56;60.85
14204;BME280;7185;51.854;6.622;2023-05-14T01:28:08;101569.81;;;17.61;60.65
14204;BME280;7185;51.854;6.622;2023-05-14T01:30:47;101567.78;;;17.41;61.00
14204;BME280;7185;51.854;6.622;2023-05-14T01:33:21;101568.03;;;17.33;61.57
14204;BME280;7185;51.854;6.622;2023-05-14T01:35:55;101573.88;;;17.45;62.15
14204;BME280;7185;51.854;6.622;2023-05-14T01:38:29;101571.03;;;17.23;62.09
14204;BME280;7185;51.854;6.622;2023-05-14T01:41:03;101571.34;;;17.12;62.81
14204;BME280;7185;51.854;6.622;2023-05-14T01:43:35;101572.22;;;17.12;63.11
14204;BME280;7185;51.854;6.622;2023-05-14T01:46:07;101572.13;;;17.15;63.04
14204;BME280;7185;51.854;6.622;2023-05-14T01:48:39;101566.97;;;17.09;63.44
14204;BME280;7185;51.854;6.622;2023-05-14T01:51:10;101565.16;;;16.80;64.66
14204;BME280;7185;51.854;6.622;2023-05-14T01:53:45;101565.53;;;16.99;64.28
14204;BME280;7185;51.854;6.622;2023-05-14T01:56:16;101564.31;;;16.79;64.69
14204;BME280;7185;51.854;6.622;2023-05-14T01:58:48;101561.50;;;16.85;65.07
14204;BME280;7185;51.854;6.622;2023-05-14T02:01:20;101561.53;;;16.84;65.09
14204;BME280;7185;51.854;6.622;2023-05-14T02:03:52;101558.91;;;16.82;65.27
14204;BME280;7185;51.854;6.622;2023-05-14T02:06:24;101553.19;;;16.66;66.03
14204;BME280;7185;51.854;6.622;2023-05-14T02:08:57;101551.06;;;16.79;65.65
14204;BME280;7185;51.854;6.622;2023-05-14T02:11:29;101546.88;;;16.72;66.11
14204;BME280;7185;51.854;6.622;2023-05-14T02:14:00;101548.44;;;16.78;65.91
14204;BME280;7185;51.854;6.622;2023-05-14T02:16:32;101550.25;;;16.77;66.19
14204;BME280;7185;51.854;6.622;2023-05-14T02:19:03;101540.91;;;16.64;65.83
14204;BME280;7185;51.854;6.622;2023-05-14T02:21:35;101543.69;;;16.59;66.78
14204;BME280;7185;51.854;6.622;2023-05-14T02:24:08;101549.16;;;16.53;66.51
14204;BME280;7185;51.854;6.622;2023-05-14T02:26:40;101550.13;;;16.50;67.23
14204;BME280;7185;51.854;6.622;2023-05-14T02:29:11;101553.00;;;16.41;67.41
14204;BME280;7185;51.854;6.622;2023-05-14T02:31:43;101541.56;;;16.40;67.09
14204;BME280;7185;51.854;6.622;2023-05-14T02:34:14;101530.63;;;16.53;67.26
14204;BME280;7185;51.854;6.622;2023-05-14T02:36:46;101544.91;;;16.47;67.71
14204;BME280;7185;51.854;6.622;2023-05-14T02:39:19;101536.31;;;16.39;67.93
14204;BME280;7185;51.854;6.622;2023-05-14T02:41:51;101538.16;;;16.35;67.95
14204;BME280;7185;51.854;6.622;2023-05-14T02:44:22;101540.97;;;16.31;68.12
14204;BME280;7185;51.854;6.622;2023-05-14T02:46:54;101540.97;;;16.31;68.22
14204;BME280;7185;51.854;6.622;2023-05-14T02:49:25;101542.66;;;16.33;67.96
14204;BME280;7185;51.854;6.622;2023-05-14T02:51:57;101549.47;;;16.42;68.28
14204;BME280;7185;51.854;6.622;2023-05-14T02:54:31;101544.47;;;16.31;68.48
14204;BME280;7185;51.854;6.622;2023-05-14T02:57:03;101542.31;;;16.13;69.06
14204;BME280;7185;51.854;6.622;2023-05-14T02:59:34;101538.06;;;16.07;69.26
14204;BME280;7185;51.854;6.622;2023-05-14T03:02:06;101541.59;;;16.06;69.25
14204;BME280;7185;51.854;6.622;2023-05-14T03:04:37;101543.50;;;16.01;69.19
14204;BME280;7185;51.854;6.622;2023-05-14T03:07:09;101538.59;;;15.85;69.63
14204;BME280;7185;51.854;6.622;2023-05-14T03:09:42;101536.19;;;15.74;70.22
14204;BME280;7185;51.854;6.622;2023-05-14T03:12:13;101538.78;;;15.76;70.50
14204;BME280;7185;51.854;6.622;2023-05-14T03:14:45;101541.53;;;15.73;70.68
14204;BME280;7185;51.854;6.622;2023-05-14T03:17:16;101542.44;;;15.72;70.53
14204;BME280;7185;51.854;6.622;2023-05-14T03:19:48;101552.31;;;15.64;70.71
14204;BME280;7185;51.854;6.622;2023-05-14T03:22:20;101543.78;;;15.52;70.91
14204;BME280;7185;51.854;6.622;2023-05-14T03:24:53;101551.47;;;15.61;71.11
14204;BME280;7185;51.854;6.622;2023-05-14T03:27:24;101542.66;;;15.62;71.28
14204;BME280;7185;51.854;6.622;2023-05-14T03:29:56;101544.47;;;15.60;71.24
14204;BME280;7185;51.854;6.622;2023-05-14T03:32:28;101534.81;;;15.58;71.42
14204;BME280;7185;51.854;6.622;2023-05-14T03:35:01;101528.84;;;15.51;71.71
14204;BME280;7185;51.854;6.622;2023-05-14T03:37:33;101526.88;;;15.59;71.60
14204;BME280;7185;51.854;6.622;2023-05-14T03:40:07;101533.06;;;15.58;71.53
14204;BME280;7185;51.854;6.622;2023-05-14T03:42:38;101528.47;;;15.67;71.25
14204;BME280;7185;51.854;6.622;2023-05-14T03:45:10;101521.59;;;15.59;71.53
14204;BME280;7185;51.854;6.622;2023-05-14T03:47:42;101523.34;;;15.60;71.58
14204;BME280;7185;51.854;6.622;2023-05-14T03:50:13;101520.50;;;15.68;71.06
14204;BME280;7185;51.854;6.622;2023-05-14T03:52:45;101522.66;;;15.52;71.42
14204;BME280;7185;51.854;6.622;2023-05-14T03:55:18;101520.66;;;15.62;71.53
14204;BME280;7185;51.854;6.622;2023-05-14T03:57:50;101523.75;;;15.42;71.66
14204;BME280;7185;51.854;6.622;2023-05-14T04:00:22;101526.25;;;15.48;71.90
14204;BME280;7185;51.854;6.622;2023-05-14T04:02:53;101515.88;;;16.11;69.10
14204;BME280;7185;51.854;6.622;2023-05-14T04:05:25;101524.34;;;15.55;70.98
14204;BME280;7185;51.854;6.622;2023-05-14T04:07:57;101527.16;;;15.47;71.48
14204;BME280;7185;51.854;6.622;2023-05-14T04:10:30;101527.09;;;15.50;71.46
14204;BME280;7185;51.854;6.622;2023-05-14T04:13:01;101525.44;;;15.46;71.70
14204;BME280;7185;51.854;6.622;2023-05-14T04:15:36;101534.41;;;15.39;71.78
14204;BME280;7185;51.854;6.622;2023-05-14T04:18:08;101514.94;;;16.47;67.47
14204;BME280;7185;51.854;6.622;2023-05-14T04:20:40;101522.22;;;16.70;66.39
14204;BME280;7185;51.854;6.622;2023-05-14T04:23:11;101523.34;;;15.60;70.44
14204;BME280;7185;51.854;6.622;2023-05-14T04:25:44;101527.34;;;15.39;71.52
14204;BME280;7185;51.854;6.622;2023-05-14T04:28:16;101523.91;;;15.36;71.81
14204;BME280;7185;51.854;6.622;2023-05-14T04:30:48;101523.91;;;15.36;71.93
14204;BME280;7185;51.854;6.622;2023-05-14T04:33:19;101531.44;;;15.53;72.74
14204;BME280;7185;51.854;6.622;2023-05-14T04:35:51;101533.28;;;15.49;72.53
14204;BME280;7185;51.854;6.622;2023-05-14T04:38:23;101530.72;;;15.46;72.84
14204;BME280;7185;51.854;6.622;2023-05-14T04:40:56;101521.44;;;15.66;72.21
14204;BME280;7185;51.854;6.622;2023-05-14T04:43:28;101524.13;;;15.64;72.06
14204;BME280;7185;51.854;6.622;2023-05-14T04:45:59;101521.22;;;15.73;72.01
14204;BME280;7185;51.854;6.622;2023-05-14T04:48:31;101522.66;;;15.88;71.94
14204;BME280;7185;51.854;6.622;2023-05-14T04:51:03;101517.84;;;16.99;67.77
14204;BME280;7185;51.854;6.622;2023-05-14T04:53:34;101521.09;;;17.37;66.15
14204;BME280;7185;51.854;6.622;2023-05-14T04:56:07;101522.66;;;16.54;69.13
14204;BME280;7185;51.854;6.622;2023-05-14T04:58:40;101520.69;;;16.30;71.19
14204;BME280;7185;51.854;6.622;2023-05-14T05:01:11;101516.31;;;16.29;71.03
14204;BME280;7185;51.854;6.622;2023-05-14T05:03:44;101524.97;;;16.34;70.50
14204;BME280;7185;51.854;6.622;2023-05-14T05:06:15;101513.25;;;16.44;70.51
14204;BME280;7185;51.854;6.622;2023-05-14T05:08:47;101524.91;;;16.37;69.94
14204;BME280;7185;51.854;6.622;2023-05-14T05:11:20;101528.53;;;16.33;70.24
14204;BME280;7185;51.854;6.622;2023-05-14T05:13:51;101526.78;;;16.32;70.44
14204;BME280;7185;51.854;6.622;2023-05-14T05:16:23;101523.25;;;16.33;70.29
14204;BME280;7185;51.854;6.622;2023-05-14T05:18:54;101518.31;;;16.52;70.30
14204;BME280;7185;51.854;6.622;2023-05-14T05:21:26;101517.03;;;16.65;70.26
14204;BME280;7185;51.854;6.622;2023-05-14T05:23:58;101527.91;;;16.86;69.50
14204;BME280;7185;51.854;6.622;2023-05-14T05:26:31;101518.72;;;16.99;69.26
14204;BME280;7185;51.854;6.622;2023-05-14T05:29:02;101524.97;;;16.97;67.62
14204;BME280;7185;51.854;6.622;2023-05-14T05:31:34;101521.03;;;17.10;68.31
14204;BME280;7185;51.854;6.622;2023-05-14T05:34:06;101524.31;;;17.18;68.17
14204;BME280;7185;51.854;6.622;2023-05-14T05:36:37;101525.78;;;17.29;67.25
14204;BME280;7185;51.854;6.622;2023-05-14T05:39:09;101525.53;;;17.36;66.94
14204;BME280;7185;51.854;6.622;2023-05-14T05:41:42;101533.88;;;17.24;66.63
14204;BME280;7185;51.854;6.622;2023-05-14T05:44:13;101526.91;;;17.48;66.37
14204;BME280;7185;51.854;6.622;2023-05-14T05:46:45;101528.25;;;17.62;65.98
14204;BME280;7185;51.854;6.622;2023-05-14T05:49:16;101525.19;;;17.47;66.12
14204;BME280;7185;51.854;6.622;2023-05-14T05:51:48;101527.34;;;17.63;65.56
14204;BME280;7185;51.854;6.622;2023-05-14T05:54:29;101527.75;;;18.77;60.94
14204;BME280;7185;51.854;6.622;2023-05-14T05:57:18;101538.19;;;18.34;62.96
14204;BME280;7185;51.854;6.622;2023-05-14T06:00:01;101530.41;;;18.04;64.28
14204;BME280;7185;51.854;6.622;2023-05-14T06:02:42;101526.38;;;18.18;63.80
14204;BME280;7185;51.854;6.622;2023-05-14T06:05:14;101528.94;;;18.21;63.97
14204;BME280;7185;51.854;6.622;2023-05-14T06:07:46;101518.69;;;18.35;63.96
14204;BME280;7185;51.854;6.622;2023-05-14T06:10:18;101527.66;;;18.56;62.97
14204;BME280;7185;51.854;6.622;2023-05-14T06:12:51;101532.88;;;18.59;62.87
14204;BME280;7185;51.854;6.622;2023-05-14T06:22:51;101529.88;;;18.92;60.81
14204;BME280;7185;51.854;6.622;2023-05-14T06:25:43;101537.53;;;19.00;61.42
14204;BME280;7185;51.854;6.622;2023-05-14T06:28:16;101539.78;;;19.11;60.91
14204;BME280;7185;51.854;6.622;2023-05-14T06:33:30;101539.25;;;19.25;59.93
14204;BME280;7185;51.854;6.622;2023-05-14T06:36:04;101538.94;;;19.33;59.12
14204;BME280;7185;51.854;6.622;2023-05-14T06:38:37;101540.38;;;19.41;59.36
14204;BME280;7185;51.854;6.622;2023-05-14T06:41:08;101541.34;;;19.61;58.43
14204;BME280;7185;51.854;6.622;2023-05-14T06:43:41;101542.09;;;19.65;59.21
14204;BME280;7185;51.854;6.622;2023-05-14T06:46:13;101540.94;;;19.70;58.23
14204;BME280;7185;51.854;6.622;2023-05-14T06:48:44;101544.13;;;19.58;58.14
14204;BME280;7185;51.854;6.622;2023-05-14T06:51:19;101539.34;;;19.66;58.25
14204;BME280;7185;51.854;6.622;2023-05-14T06:53:50;101530.84;;;19.79;57.54
14204;BME280;7185;51.854;6.622;2023-05-14T06:56:23;101526.78;;;19.92;57.47
14204;BME280;7185;51.854;6.622;2023-05-14T07:01:29;101522.78;;;20.02;55.66
14204;BME280;7185;51.854;6.622;2023-05-14T07:04:00;101520.53;;;20.14;54.85
14204;BME280;7185;51.854;6.622;2023-05-14T07:06:32;101524.78;;;20.18;55.31
14204;BME280;7185;51.854;6.622;2023-05-14T07:09:04;101520.50;;;20.34;55.34
14204;BME280;7185;51.854;6.622;2023-05-14T07:11:36;101525.63;;;20.39;54.18
14204;BME280;7185;51.854;6.622;2023-05-14T07:14:07;101522.63;;;20.66;53.96
14204;BME280;7185;51.854;6.622;2023-05-14T07:16:40;101523.56;;;20.85;53.54
14204;BME280;7185;51.854;6.622;2023-05-14T07:19:12;101525.72;;;20.96;53.13
14204;BME280;7185;51.854;6.622;2023-05-14T07:21:44;101521.66;;;21.07;53.26
14204;BME280;7185;51.854;6.622;2023-05-14T07:24:15;101520.75;;;21.25;53.12
14204;BME280;7185;51.854;6.622;2023-05-14T07:26:47;101519.34;;;21.18;54.19
14204;BME280;7185;51.854;6.622;2023-05-14T07:29:19;101524.81;;;21.34;54.45
14204;BME280;7185;51.854;6.622;2023-05-14T07:31:51;101514.69;;;21.41;54.10
14204;BME280;7185;51.854;6.622;2023-05-14T07:34:26;101522.22;;;21.69;53.66
14204;BME280;7185;51.854;6.622;2023-05-14T07:36:58;101515.13;;;21.86;52.73
14204;BME280;7185;51.854;6.622;2023-05-14T07:39:29;101513.31;;;22.04;52.86
14204;BME280;7185;51.854;6.622;2023-05-14T07:42:03;101524.66;;;21.91;52.39
14204;BME280;7185;51.854;6.622;2023-05-14T07:44:35;101519.06;;;21.96;51.16
14204;BME280;7185;51.854;6.622;2023-05-14T07:47:08;101512.19;;;22.25;51.45
14204;BME280;7185;51.854;6.622;2023-05-14T07:49:39;101519.66;;;22.36;50.30
14204;BME280;7185;51.854;6.622;2023-05-14T07:52:11;101511.44;;;22.57;50.26
14204;BME280;7185;51.854;6.622;2023-05-14T07:54:43;101508.72;;;22.58;48.88
14204;BME280;7185;51.854;6.622;2023-05-14T07:57:15;101507.75;;;22.26;49.47
14204;BME280;7185;51.854;6.622;2023-05-14T07:59:47;101507.97;;;22.39;51.54
14204;BME280;7185;51.854;6.622;2023-05-14T08:02:22;101512.34;;;22.40;49.79
14204;BME280;7185;51.854;6.622;2023-05-14T08:04:57;101508.88;;;22.55;49.59
14204;BME280;7185;51.854;6.622;2023-05-14T08:07:28;101511.28;;;22.60;49.22
14204;BME280;7185;51.854;6.622;2023-05-14T08:10:00;101514.91;;;22.75;49.21
14204;BME280;7185;51.854;6.622;2023-05-14T08:12:32;101505.44;;;22.69;47.97
14204;BME280;7185;51.854;6.622;2023-05-14T08:15:05;101511.66;;;22.70;46.21
14204;BME280;7185;51.854;6.622;2023-05-14T08:17:38;101505.81;;;22.95;47.98
14204;BME280;7185;51.854;6.622;2023-05-14T08:20:10;101505.91;;;22.94;47.94
14204;BME280;7185;51.854;6.622;2023-05-14T08:22:42;101512.19;;;23.08;47.86
14204;BME280;7185;51.854;6.622;2023-05-14T08:25:13;101504.75;;;22.98;45.27
14204;BME280;7185;51.854;6.622;2023-05-14T08:27:45;101501.69;;;23.21;46.40
14204;BME280;7185;51.854;6.622;2023-05-14T08:30:17;101503.66;;;23.34;45.48
14204;BME280;7185;51.854;6.622;2023-05-14T08:32:52;101503.47;;;23.67;45.77
14204;BME280;7185;51.854;6.622;2023-05-14T08:35:24;101505.69;;;23.75;43.37
14204;BME280;7185;51.854;6.622;2023-05-14T08:37:56;101490.31;;;23.79;44.98
14204;BME280;7185;51.854;6.622;2023-05-14T08:40:27;101498.91;;;24.14;43.34
14204;BME280;7185;51.854;6.622;2023-05-14T08:42:59;101504.09;;;24.32;43.79
14204;BME280;7185;51.854;6.622;2023-05-14T08:45:32;101495.25;;;24.15;44.55
14204;BME280;7185;51.854;6.622;2023-05-14T08:48:08;101493.19;;;24.35;44.32
14204;BME280;7185;51.854;6.622;2023-05-14T08:50:43;101490.50;;;24.21;42.23
14204;BME280;7185;51.854;6.622;2023-05-14T08:53:14;101478.13;;;24.03;43.59
14204;BME280;7185;51.854;6.622;2023-05-14T08:55:47;101486.25;;;24.02;45.19
14204;BME280;7185;51.854;6.622;2023-05-14T08:58:24;101477.84;;;24.51;42.88
14204;BME280;7185;51.854;6.622;2023-05-14T09:00:58;101471.72;;;25.06;43.24
14204;BME280;7185;51.854;6.622;2023-05-14T09:03:31;101476.28;;;25.45;40.31
14204;BME280;7185;51.854;6.622;2023-05-14T09:06:03;101472.59;;;25.87;40.14
14204;BME280;7185;51.854;6.622;2023-05-14T09:08:36;101471.88;;;26.11;40.67
14204;BME280;7185;51.854;6.622;2023-05-14T09:11:08;101475.59;;;26.47;40.24
14204;BME280;7185;51.854;6.622;2023-05-14T09:13:39;101471.00;;;26.73;38.79
14204;BME280;7185;51.854;6.622;2023-05-14T09:16:11;101475.31;;;26.88;37.79
14204;BME280;7185;51.854;6.622;2023-05-14T09:18:44;101473.53;;;27.00;37.12
14204;BME280;7185;51.854;6.622;2023-05-14T09:21:16;101466.22;;;27.02;36.64
14204;BME280;7185;51.854;6.622;2023-05-14T09:23:52;101465.38;;;26.89;38.08
14204;BME280;7185;51.854;6.622;2023-05-14T09:26:24;101465.97;;;27.06;36.43
14204;BME280;7185;51.854;6.622;2023-05-14T09:28:57;101465.69;;;27.22;35.76
14204;BME280;7185;51.854;6.622;2023-05-14T09:31:32;101461.69;;;27.39;35.38
14204;BME280;7185;51.854;6.622;2023-05-14T09:34:05;101451.69;;;27.41;36.02
14204;BME280;7185;51.854;6.622;2023-05-14T09:36:36;101456.69;;;27.58;35.44
14204;BME280;7185;51.854;6.622;2023-05-14T09:39:08;101445.44;;;27.64;35.51
14204;BME280;7185;51.854;6.622;2023-05-14T09:41:40;101453.78;;;27.95;35.49
14204;BME280;7185;51.854;6.622;2023-05-14T09:44:11;101451.59;;;28.01;34.93
14204;BME280;7185;51.854;6.622;2023-05-14T09:46:43;101447.81;;;28.03;34.88
14204;BME280;7185;51.854;6.622;2023-05-14T09:49:17;101443.78;;;28.31;35.11
14204;BME280;7185;51.854;6.622;2023-05-14T09:51:52;101433.22;;;27.94;34.04
14204;BME280;7185;51.854;6.622;2023-05-14T09:54:25;101434.91;;;27.84;35.28
14204;BME280;7185;51.854;6.622;2023-05-14T09:56:57;101434.25;;;28.27;35.16
14204;BME280;7185;51.854;6.622;2023-05-14T09:59:28;101431.53;;;28.50;35.10
14204;BME280;7185;51.854;6.622;2023-05-14T10:02:00;101431.25;;;28.53;33.40
14204;BME280;7185;51.854;6.622;2023-05-14T10:04:34;101430.72;;;28.82;34.76
14204;BME280;7185;51.854;6.622;2023-05-14T10:07:06;101435.66;;;28.54;35.79
14204;BME280;7185;51.854;6.622;2023-05-14T10:09:40;101425.97;;;28.74;34.02
14204;BME280;7185;51.854;6.622;2023-05-14T10:12:15;101416.56;;;28.35;34.52
14204;BME280;7185;51.854;6.622;2023-05-14T10:14:56;101417.66;;;28.43;35.88
14204;BME280;7185;51.854;6.622;2023-05-14T10:17:31;101411.34;;;28.66;33.52
14204;BME280;7185;51.854;6.622;2023-05-14T10:20:08;101408.66;;;28.66;32.99
14204;BME280;7185;51.854;6.622;2023-05-14T10:22:43;101407.44;;;28.58;35.00
14204;BME280;7185;51.854;6.622;2023-05-14T10:25:15;101402.66;;;28.62;34.16
14204;BME280;7185;51.854;6.622;2023-05-14T10:27:47;101402.34;;;28.33;31.24
14204;BME280;7185;51.854;6.622;2023-05-14T10:30:20;101397.88;;;28.77;32.19
14204;BME280;7185;51.854;6.622;2023-05-14T10:33:05;101394.84;;;28.47;31.16
14204;BME280;7185;51.854;6.622;2023-05-14T10:35:54;101391.38;;;28.68;30.96
14204;BME280;7185;51.854;6.622;2023-05-14T10:38:26;101390.28;;;28.71;29.95
14204;BME280;7185;51.854;6.622;2023-05-14T10:41:02;101390.97;;;28.84;29.42
14204;BME280;7185;51.854;6.622;2023-05-14T10:43:36;101396.09;;;28.87;32.03
14204;BME280;7185;51.854;6.622;2023-05-14T10:46:09;101386.09;;;28.78;30.39
14204;BME280;7185;51.854;6.622;2023-05-14T10:48:42;101389.88;;;29.08;30.15
14204;BME280;7185;51.854;6.622;2023-05-14T10:51:15;101386.75;;;29.66;29.92
14204;BME280;7185;51.854;6.622;2023-05-14T10:53:59;101383.56;;;29.82;27.95
14204;BME280;7185;51.854;6.622;2023-05-14T10:56:31;101379.28;;;29.80;29.16
14204;BME280;7185;51.854;6.622;2023-05-14T10:59:05;101386.91;;;29.96;29.35
14204;BME280;7185;51.854;6.622;2023-05-14T11:01:39;101376.31;;;30.74;28.32
14204;BME280;7185;51.854;6.622;2023-05-14T11:04:17;101362.06;;;31.31;27.27
14204;BME280;7185;51.854;6.622;2023-05-14T11:07:01;101372.34;;;31.08;27.08
14204;BME280;7185;51.854;6.622;2023-05-14T11:09:34;101365.06;;;31.08;27.84
14204;BME280;7185;51.854;6.622;2023-05-14T11:12:07;101362.88;;;31.41;26.53
14204;BME280;7185;51.854;6.622;2023-05-14T11:14:42;101362.09;;;31.11;28.17
14204;BME280;7185;51.854;6.622;2023-05-14T11:17:14;101358.03;;;31.35;26.90
14204;BME280;7185;51.854;6.622;2023-05-14T11:19:49;101351.13;;;31.70;25.19
14204;BME280;7185;51.854;6.622;2023-05-14T11:22:22;101348.31;;;31.90;24.21
14204;BME280;7185;51.854;6.622;2023-05-14T11:24:54;101347.53;;;32.07;25.93
14204;BME280;7185;51.854;6.622;2023-05-14T11:27:25;101344.00;;;32.25;24.91
14204;BME280;7185;51.854;6.622;2023-05-14T11:29:57;101349.16;;;32.28;22.38
14204;BME280;7185;51.854;6.622;2023-05-14T11:32:31;101345.03;;;31.86;23.73
14204;BME280;7185;51.854;6.622;2023-05-14T11:35:03;101344.91;;;31.50;23.10
14204;BME280;7185;51.854;6.622;2023-05-14T11:37:36;101338.91;;;30.29;25.63
14204;BME280;7185;51.854;6.622;2023-05-14T11:40:13;101337.56;;;30.54;25.07
14204;BME280;7185;51.854;6.622;2023-05-14T11:42:45;101334.00;;;30.03;26.39
14204;BME280;7185;51.854;6.622;2023-05-14T11:45:23;101341.44;;;30.11;27.58
14204;BME280;7185;51.854;6.622;2023-05-14T11:47:55;101335.09;;;29.17;28.72
14204;BME280;7185;51.854;6.622;2023-05-14T11:50:27;101337.28;;;29.23;27.53
14204;BME280;7185;51.854;6.622;2023-05-14T11:53:00;101333.00;;;29.00;28.38
14204;BME280;7185;51.854;6.622;2023-05-14T11:55:33;101323.13;;;29.10;29.34
14204;BME280;7185;51.854;6.622;2023-05-14T11:58:05;101334.56;;;28.81;28.82
14204;BME280;7185;51.854;6.622;2023-05-14T12:00:37;101335.19;;;29.06;30.05
14204;BME280;7185;51.854;6.622;2023-05-14T12:03:09;101336.41;;;29.02;29.83
14204;BME280;7185;51.854;6.622;2023-05-14T12:05:54;101327.91;;;28.53;30.53
14204;BME280;7185;51.854;6.622;2023-05-14T12:08:28;101325.31;;;28.51;30.91
14204;BME280;7185;51.854;6.622;2023-05-14T12:11:00;101329.03;;;28.39;31.88
14204;BME280;7185;51.854;6.622;2023-05-14T12:13:32;101328.84;;;28.19;30.90
14204;BME280;7185;51.854;6.622;2023-05-14T12:16:04;101322.69;;;28.28;31.69
14204;BME280;7185;51.854;6.622;2023-05-14T12:18:35;101328.09;;;28.72;31.53
14204;BME280;7185;51.854;6.622;2023-05-14T12:21:07;101320.63;;;29.18;31.18
14204;BME280;7185;51.854;6.622;2023-05-14T12:23:40;101317.13;;;29.28;29.29
14204;BME280;7185;51.854;6.622;2023-05-14T12:26:12;101323.38;;;29.28;29.13
14204;BME280;7185;51.854;6.622;2023-05-14T12:28:46;101318.78;;;29.71;27.95
14204;BME280;7185;51.854;6.622;2023-05-14T12:31:26;101311.41;;;29.73;28.40
14204;BME280;7185;51.854;6.622;2023-05-14T12:33:58;101305.06;;;29.53;27.20
14204;BME280;7185;51.854;6.622;2023-05-14T12:36:30;101305.00;;;29.74;27.44
14204;BME280;7185;51.854;6.622;2023-05-14T12:39:04;101299.97;;;29.60;26.22
14204;BME280;7185;51.854;6.622;2023-05-14T12:41:35;101288.38;;;29.79;27.25
14204;BME280;7185;51.854;6.622;2023-05-14T12:44:07;101293.28;;;29.95;25.56
14204;BME280;7185;51.854;6.622;2023-05-14T12:46:38;101290.53;;;30.26;26.51
14204;BME280;7185;51.854;6.622;2023-05-14T12:49:10;101282.97;;;30.19;25.76
14204;BME280;7185;51.854;6.622;2023-05-14T12:51:44;101288.09;;;30.23;25.38
14204;BME280;7185;51.854;6.622;2023-05-14T12:54:18;101283.66;;;30.21;25.29
14204;BME280;7185;51.854;6.622;2023-05-14T12:56:50;101279.97;;;29.82;25.83
14204;BME280;7185;51.854;6.622;2023-05-14T12:59:21;101282.09;;;30.09;26.23
14204;BME280;7185;51.854;6.622;2023-05-14T13:01:53;101276.50;;;30.01;27.50
14204;BME280;7185;51.854;6.622;2023-05-14T13:04:25;101272.56;;;30.15;26.16
14204;BME280;7185;51.854;6.622;2023-05-14T13:06:56;101275.88;;;29.87;25.76
14204;BME280;7185;51.854;6.622;2023-05-14T13:09:29;101268.34;;;29.81;25.63
14204;BME280;7185;51.854;6.622;2023-05-14T13:12:04;101272.94;;;29.91;26.15
14204;BME280;7185;51.854;6.622;2023-05-14T13:14:36;101269.38;;;30.00;25.98
14204;BME280;7185;51.854;6.622;2023-05-14T13:17:07;101264.88;;;29.69;25.00
14204;BME280;7185;51.854;6.622;2023-05-14T13:19:39;101265.88;;;29.78;25.14
14204;BME280;7185;51.854;6.622;2023-05-14T13:22:10;101267.88;;;29.66;25.08
14204;BME280;7185;51.854;6.622;2023-05-14T13:24:43;101258.41;;;29.30;26.09
14204;BME280;7185;51.854;6.622;2023-05-14T13:27:15;101262.88;;;29.31;25.09
14204;BME280;7185;51.854;6.622;2023-05-14T13:29:47;101270.75;;;29.22;23.59
14204;BME280;7185;51.854;6.622;2023-05-14T13:32:18;101266.03;;;28.93;25.31
14204;BME280;7185;51.854;6.622;2023-05-14T13:34:50;101259.38;;;28.76;25.87
14204;BME280;7185;51.854;6.622;2023-05-14T13:37:24;101256.97;;;28.73;24.88
14204;BME280;7185;51.854;6.622;2023-05-14T13:39:57;101260.00;;;29.01;24.16
14204;BME280;7185;51.854;6.622;2023-05-14T13:42:29;101253.41;;;28.73;25.62